createdAt,value
2022-08-31T00:02:44.647Z,25.10
2022-08-31T00:05:15.113Z,25.00
2022-08-31T00:07:45.474Z,24.80
2022-08-31T00:10:31.614Z,24.70
2022-08-31T00:13:04.220Z,24.50
2022-08-31T00:15:34.632Z,24.50
2022-08-31T00:18:05.577Z,24.50
2022-08-31T00:20:36.948Z,24.30
2022-08-31T00:23:09.429Z,24.20
2022-08-31T00:25:42.382Z,24.30
2022-08-31T00:28:14.203Z,24.30
2022-08-31T00:30:45.213Z,24.30
2022-08-31T00:33:16.564Z,24.30
2022-08-31T00:35:47.595Z,24.30
2022-08-31T00:38:18.273Z,24.40
2022-08-31T00:40:50.598Z,24.40
2022-08-31T00:43:51.734Z,24.40
2022-08-31T00:46:27.972Z,24.40
2022-08-31T00:49:30.575Z,24.40
2022-08-31T00:52:11.581Z,24.40
2022-08-31T00:54:56.846Z,24.50
2022-08-31T00:57:37.953Z,24.60
2022-08-31T01:00:14.049Z,24.60
2022-08-31T01:02:44.805Z,24.60
2022-08-31T01:05:16.489Z,24.70
2022-08-31T01:07:49.818Z,24.70
2022-08-31T01:10:23.305Z,24.70
2022-08-31T01:12:59.454Z,24.70
2022-08-31T01:15:32.882Z,24.70
2022-08-31T01:18:06.262Z,24.80
2022-08-31T01:20:54.389Z,24.90
2022-08-31T01:23:30.927Z,24.90
2022-08-31T01:26:02.175Z,25.00
2022-08-31T01:28:32.511Z,25.10
2022-08-31T01:31:13.630Z,25.10
2022-08-31T01:33:44.450Z,25.20
2022-08-31T01:36:17.208Z,25.30
2022-08-31T01:38:52.941Z,25.20
2022-08-31T01:41:25.139Z,25.30
2022-08-31T01:43:56.636Z,25.40
2022-08-31T01:46:27.839Z,25.30
2022-08-31T01:48:58.599Z,25.40
2022-08-31T01:51:30.167Z,25.30
2022-08-31T01:54:00.989Z,25.40
2022-08-31T01:56:36.513Z,25.40
2022-08-31T01:59:08.687Z,25.40
2022-08-31T02:01:44.019Z,25.40
2022-08-31T02:04:17.170Z,25.30
2022-08-31T02:06:51.658Z,25.40
2022-08-31T02:09:23.663Z,25.40
2022-08-31T02:11:55.119Z,25.50
2022-08-31T02:14:25.853Z,25.60
2022-08-31T02:17:00.660Z,25.50
2022-08-31T02:19:30.966Z,25.60
2022-08-31T02:22:01.914Z,25.60
2022-08-31T02:24:32.213Z,25.60
2022-08-31T02:27:02.575Z,25.60
2022-08-31T02:29:32.820Z,25.70
2022-08-31T02:32:03.131Z,25.70
2022-08-31T02:34:33.395Z,25.70
2022-08-31T02:37:03.930Z,25.70
2022-08-31T02:39:35.250Z,25.90
2022-08-31T02:42:05.525Z,25.90
2022-08-31T02:44:40.813Z,25.90
2022-08-31T02:47:10.990Z,25.90
2022-08-31T02:55:24.332Z,25.50
2022-08-31T02:57:54.915Z,25.30
2022-08-31T03:00:29.133Z,25.40
2022-08-31T03:02:59.630Z,25.50
2022-08-31T03:05:30.896Z,25.80
2022-08-31T03:08:01.153Z,26.10
2022-08-31T03:10:31.448Z,26.20
2022-08-31T03:13:01.920Z,26.40
2022-08-31T03:15:32.410Z,26.60
2022-08-31T03:18:03.211Z,26.70
2022-08-31T03:20:37.352Z,26.80
2022-08-31T03:23:08.855Z,26.90
2022-08-31T03:25:40.192Z,27.00
2022-08-31T03:28:11.265Z,27.20
2022-08-31T03:30:47.900Z,27.30
2022-08-31T03:33:18.947Z,27.40
2022-08-31T03:35:49.391Z,27.40
2022-08-31T03:38:23.686Z,27.50
2022-08-31T03:40:53.967Z,27.70
2022-08-31T03:43:24.306Z,27.70
2022-08-31T03:45:55.053Z,27.70
2022-08-31T03:48:32.738Z,27.60
2022-08-31T03:51:03.539Z,27.50
2022-08-31T03:53:37.889Z,27.40
2022-08-31T03:56:11.145Z,27.30
2022-08-31T03:58:42.077Z,27.40
2022-08-31T04:01:17.139Z,27.40
2022-08-31T04:04:03.500Z,27.30
2022-08-31T04:06:35.805Z,27.30
2022-08-31T04:09:12.611Z,27.10
2022-08-31T04:11:45.736Z,27.00
2022-08-31T04:14:24.688Z,26.90
2022-08-31T04:17:05.988Z,26.90
2022-08-31T04:19:46.143Z,26.90
2022-08-31T04:22:16.416Z,26.80
2022-08-31T04:24:53.673Z,26.90
2022-08-31T04:27:23.861Z,26.90
2022-08-31T04:30:01.125Z,26.90
2022-08-31T04:32:31.393Z,26.90
2022-08-31T04:35:09.625Z,26.70
2022-08-31T04:37:43.405Z,26.60
2022-08-31T04:40:29.731Z,26.70
2022-08-31T04:43:04.789Z,26.80
2022-08-31T04:45:41.747Z,26.90
2022-08-31T04:48:19.673Z,26.80
2022-08-31T04:50:59.669Z,26.70
2022-08-31T05:02:59.066Z,27.10
2022-08-31T05:52:08.901Z,28.90
2022-08-31T06:27:23.595Z,28.80
2022-08-31T06:51:28.259Z,28.60
2022-08-31T07:10:56.966Z,29.20
2022-08-31T07:13:27.364Z,29.30
2022-08-31T07:16:07.064Z,29.40
2022-08-31T07:18:38.240Z,29.40
2022-08-31T07:28:41.480Z,29.70
2022-08-31T07:31:12.606Z,29.60
2022-08-31T07:33:43.280Z,29.50
2022-08-31T07:36:16.569Z,29.40
2022-08-31T07:39:04.242Z,29.30
2022-08-31T07:54:02.805Z,28.30
2022-08-31T08:45:47.529Z,27.50
2022-08-31T08:48:22.887Z,27.60
2022-08-31T08:50:55.108Z,27.60
2022-08-31T08:53:31.217Z,27.70
2022-08-31T09:04:02.104Z,28.10
2022-08-31T09:07:01.706Z,28.20
2022-08-31T09:09:45.025Z,28.30
2022-08-31T09:12:34.035Z,28.50
2022-08-31T09:15:33.635Z,28.70
2022-08-31T10:12:18.258Z,28.50
2022-08-31T10:18:52.859Z,28.80
2022-08-31T10:21:33.742Z,28.90
2022-08-31T10:24:34.753Z,28.90
2022-08-31T10:27:23.313Z,28.80
2022-08-31T11:00:46.836Z,27.90
2022-08-31T11:03:37.272Z,27.90
2022-08-31T11:06:30.139Z,27.90
2022-08-31T11:09:25.309Z,27.80
2022-08-31T11:12:09.133Z,27.80
2022-08-31T12:05:04.830Z,27.10
2022-08-31T12:07:48.023Z,27.00
2022-08-31T12:10:55.608Z,27.10
2022-08-31T12:13:38.470Z,27.10
2022-08-31T12:39:26.697Z,26.60
2022-08-31T12:42:02.738Z,26.60
2022-08-31T12:44:38.289Z,26.60
2022-08-31T12:47:39.928Z,26.60
2022-08-31T12:50:42.036Z,26.60
2022-08-31T12:53:39.057Z,26.70
2022-08-31T13:03:54.052Z,26.70
2022-08-31T13:06:32.233Z,26.70
2022-08-31T13:09:04.239Z,26.60
2022-08-31T13:11:53.058Z,26.60
2022-08-31T13:14:28.864Z,26.60
2022-08-31T13:17:28.135Z,26.50
2022-08-31T13:20:02.944Z,26.40
2022-08-31T13:22:43.201Z,26.40
2022-08-31T13:25:35.212Z,26.40
2022-08-31T13:28:30.107Z,26.30
2022-08-31T13:31:04.371Z,26.30
2022-08-31T13:33:41.507Z,26.20
2022-08-31T13:36:32.492Z,26.20
2022-08-31T13:39:16.355Z,26.10
2022-08-31T13:42:08.840Z,26.10
2022-08-31T13:44:44.509Z,26.10
2022-08-31T13:47:38.032Z,26.10
2022-08-31T13:50:39.239Z,26.00
2022-08-31T13:53:26.401Z,26.00
2022-08-31T13:55:58.966Z,26.00
2022-08-31T13:58:34.160Z,25.90
2022-08-31T14:01:28.039Z,25.80
2022-08-31T14:04:02.056Z,25.80
2022-08-31T14:06:37.571Z,25.80
2022-08-31T14:09:23.223Z,25.80
2022-08-31T14:12:07.502Z,25.80
2022-08-31T14:14:46.179Z,25.90
2022-08-31T14:17:20.813Z,25.90
2022-08-31T14:19:51.543Z,25.80
2022-08-31T14:22:41.125Z,25.80
2022-08-31T14:25:16.001Z,25.70
2022-08-31T14:27:47.817Z,25.70
2022-08-31T14:30:18.145Z,25.70
2022-08-31T14:33:01.551Z,25.80
2022-08-31T14:35:31.837Z,25.80
2022-08-31T14:38:02.446Z,25.80
2022-08-31T14:40:41.168Z,25.70
2022-08-31T14:43:19.946Z,25.70
2022-08-31T14:45:50.330Z,25.70
2022-08-31T14:48:23.631Z,25.70
2022-08-31T14:50:53.861Z,25.70
2022-08-31T14:53:24.089Z,25.70
2022-08-31T14:55:54.332Z,25.70
2022-08-31T14:58:26.013Z,25.70
2022-08-31T15:00:56.417Z,25.70
2022-08-31T15:03:28.952Z,25.70
2022-08-31T15:06:02.103Z,25.80
2022-08-31T15:08:38.588Z,25.80
2022-08-31T15:11:10.060Z,25.80
2022-08-31T15:13:41.850Z,25.70
2022-08-31T15:16:16.372Z,25.70
2022-08-31T15:18:47.154Z,25.70
2022-08-31T15:21:17.558Z,25.70
2022-08-31T15:23:50.431Z,25.70
2022-08-31T15:26:23.347Z,25.70
2022-08-31T15:28:55.310Z,25.70
2022-08-31T15:31:29.003Z,25.60
2022-08-31T15:34:04.245Z,25.60
2022-08-31T15:36:38.197Z,25.70
2022-08-31T15:39:09.370Z,25.70
2022-08-31T15:41:41.208Z,25.70
2022-08-31T15:44:12.986Z,25.60
2022-08-31T15:46:57.726Z,25.60
2022-08-31T15:49:29.418Z,25.50
2022-08-31T15:51:59.743Z,25.50
2022-08-31T15:54:36.678Z,25.50
2022-08-31T15:57:13.240Z,25.50
2022-08-31T15:59:45.179Z,25.50
2022-08-31T16:02:17.283Z,25.50
2022-08-31T16:04:48.096Z,25.50
2022-08-31T16:07:18.729Z,25.50
2022-08-31T16:09:48.964Z,25.50
2022-08-31T16:12:22.018Z,25.50
2022-08-31T16:14:53.768Z,25.60
2022-08-31T16:17:24.227Z,25.60
2022-08-31T16:19:54.518Z,25.70
2022-08-31T16:22:30.431Z,25.50
2022-08-31T16:25:02.239Z,25.50
2022-08-31T16:27:32.489Z,25.40
2022-08-31T16:30:03.309Z,25.50
2022-08-31T16:32:33.562Z,25.50
2022-08-31T16:35:03.868Z,25.50
2022-08-31T16:37:34.972Z,25.50
2022-08-31T16:40:06.580Z,25.60
2022-08-31T16:42:37.221Z,25.50
2022-08-31T16:45:08.205Z,25.50
2022-08-31T16:47:38.580Z,25.40
2022-08-31T16:50:11.494Z,25.40
2022-08-31T16:52:41.793Z,25.40
2022-08-31T16:55:14.210Z,25.50
2022-08-31T16:57:45.599Z,25.50
2022-08-31T17:00:16.253Z,25.50
2022-08-31T17:02:46.877Z,25.40
2022-08-31T17:05:17.214Z,25.40
2022-08-31T17:07:48.839Z,25.40
2022-08-31T17:10:19.258Z,25.40
2022-08-31T17:12:50.405Z,25.40
2022-08-31T17:15:21.108Z,25.40
2022-08-31T17:17:51.293Z,25.30
2022-08-31T17:20:22.285Z,25.30
2022-08-31T17:22:52.815Z,25.30
2022-08-31T17:25:26.597Z,25.30
2022-08-31T17:28:00.424Z,25.40
2022-08-31T17:30:32.873Z,25.40
2022-08-31T17:33:03.542Z,25.30
2022-08-31T17:35:34.063Z,25.40
2022-08-31T17:38:05.276Z,25.40
2022-08-31T17:40:35.741Z,25.40
2022-08-31T17:43:06.189Z,25.40
2022-08-31T17:45:39.067Z,25.40
2022-08-31T17:48:09.446Z,25.50
2022-08-31T17:50:46.994Z,25.40
2022-08-31T17:53:17.302Z,25.40
2022-08-31T17:55:56.800Z,25.40
2022-08-31T17:58:27.099Z,25.40
2022-08-31T18:00:58.168Z,25.50
2022-08-31T18:03:28.610Z,25.40
2022-08-31T18:05:58.927Z,25.40
2022-08-31T18:08:29.133Z,25.40
2022-08-31T18:10:59.384Z,25.40
2022-08-31T18:13:30.058Z,25.30
2022-08-31T18:16:00.336Z,25.30
2022-08-31T18:18:31.094Z,25.30
2022-08-31T18:21:01.623Z,25.30
2022-08-31T18:23:31.839Z,25.20
2022-08-31T18:26:02.141Z,25.20
2022-08-31T18:28:32.359Z,25.20
2022-08-31T18:31:09.673Z,25.30
2022-08-31T18:33:41.203Z,25.20
2022-08-31T18:36:14.428Z,25.30
2022-08-31T18:38:44.594Z,25.30
2022-08-31T18:41:26.320Z,25.30
2022-08-31T18:44:06.634Z,25.30
2022-08-31T18:46:37.222Z,25.30
2022-08-31T18:49:12.590Z,25.40
2022-08-31T18:51:45.131Z,25.40
2022-08-31T18:54:17.290Z,25.40
2022-08-31T18:56:47.898Z,25.40
2022-08-31T18:59:20.179Z,25.30
2022-08-31T19:01:50.649Z,25.30
2022-08-31T19:04:22.061Z,25.30
2022-08-31T19:06:52.940Z,25.30
2022-08-31T19:09:24.637Z,25.20
2022-08-31T19:11:57.882Z,25.30
2022-08-31T19:14:29.094Z,25.30
2022-08-31T19:17:03.905Z,25.30
2022-08-31T19:19:35.100Z,25.30
2022-08-31T19:22:05.549Z,25.30
2022-08-31T19:24:35.881Z,25.30
2022-08-31T19:27:06.331Z,25.30
2022-08-31T19:29:36.651Z,25.20
2022-08-31T19:32:08.303Z,25.20
2022-08-31T19:34:41.363Z,25.20
2022-08-31T19:37:12.278Z,25.20
2022-08-31T19:39:45.986Z,25.20
2022-08-31T19:42:18.421Z,25.20
2022-08-31T19:45:22.452Z,25.20
2022-08-31T19:47:40.693Z,25.20
2022-08-31T19:50:14.208Z,25.20
2022-08-31T19:52:45.169Z,25.20
2022-08-31T19:55:15.672Z,25.10
2022-08-31T19:57:45.869Z,25.10
2022-08-31T20:00:17.975Z,25.10
2022-08-31T20:02:48.402Z,25.10
2022-08-31T20:05:18.784Z,25.10
2022-08-31T20:07:49.138Z,25.10
2022-08-31T20:10:19.994Z,25.10
2022-08-31T20:12:52.446Z,25.10
2022-08-31T20:15:22.826Z,25.10
2022-08-31T20:17:59.169Z,25.10
2022-08-31T20:20:31.191Z,25.10
2022-08-31T20:23:01.625Z,25.10
2022-08-31T20:25:31.839Z,25.10
2022-08-31T20:28:03.380Z,25.10
2022-08-31T20:30:38.622Z,25.10
2022-08-31T20:33:10.294Z,25.10
2022-08-31T20:35:44.577Z,25.20
2022-08-31T20:38:16.199Z,25.30
2022-08-31T20:40:49.061Z,25.20
2022-08-31T20:43:19.545Z,25.10
2022-08-31T20:45:51.339Z,25.20
2022-08-31T20:48:40.988Z,25.10
2022-08-31T20:51:18.292Z,25.10
2022-08-31T20:53:51.025Z,25.10
2022-08-31T20:56:26.938Z,25.10
2022-08-31T20:58:57.317Z,25.10
2022-08-31T21:01:28.109Z,25.10
2022-08-31T21:03:59.529Z,25.10
2022-08-31T21:06:29.799Z,25.10
2022-08-31T21:09:00.233Z,25.10
2022-08-31T21:11:30.701Z,25.10
2022-08-31T21:14:02.222Z,25.20
2022-08-31T21:16:34.256Z,25.20
2022-08-31T21:19:14.558Z,25.10
2022-08-31T21:21:46.670Z,25.00
2022-08-31T21:24:19.167Z,25.00
2022-08-31T21:26:50.398Z,25.00
2022-08-31T21:29:21.124Z,24.90
2022-08-31T21:31:59.994Z,24.90
2022-08-31T21:34:33.899Z,24.90
2022-08-31T21:37:04.406Z,24.90
2022-08-31T21:39:34.865Z,25.00
2022-08-31T21:42:05.948Z,25.00
2022-08-31T21:44:37.905Z,25.00
2022-08-31T21:47:09.933Z,24.90
2022-08-31T21:49:40.265Z,24.90
2022-08-31T21:52:10.721Z,25.00
2022-08-31T21:54:43.831Z,25.00
2022-08-31T21:57:14.909Z,24.90
2022-08-31T21:59:45.227Z,24.90
2022-08-31T22:02:16.782Z,24.90
2022-08-31T22:04:47.848Z,24.90
2022-08-31T22:07:18.137Z,24.90
2022-08-31T22:09:48.975Z,24.90
2022-08-31T22:12:20.248Z,24.90
2022-08-31T22:14:52.284Z,24.90
2022-08-31T22:17:29.524Z,24.90
2022-08-31T22:20:15.139Z,24.90
2022-08-31T22:22:46.947Z,24.80
2022-08-31T22:25:17.471Z,24.80
2022-08-31T22:27:49.082Z,24.70
2022-08-31T22:30:22.051Z,24.80
2022-08-31T22:32:52.745Z,24.80
2022-08-31T22:35:24.122Z,24.70
2022-08-31T22:37:54.293Z,24.80
2022-08-31T22:40:24.592Z,24.90
2022-08-31T22:42:57.390Z,24.80
2022-08-31T22:45:27.790Z,24.70
2022-08-31T22:47:57.927Z,24.70
2022-08-31T22:50:28.661Z,24.70
2022-08-31T22:52:58.900Z,24.70
2022-08-31T22:55:31.307Z,24.70
2022-08-31T22:58:01.530Z,24.70
2022-08-31T23:00:32.193Z,24.70
2022-08-31T23:03:02.679Z,24.70
2022-08-31T23:05:33.401Z,24.70
2022-08-31T23:08:03.792Z,24.70
2022-08-31T23:10:34.803Z,24.70
2022-08-31T23:13:05.571Z,24.70
2022-08-31T23:15:36.266Z,24.70
2022-08-31T23:18:09.872Z,24.70
2022-08-31T23:20:43.815Z,24.70
2022-08-31T23:23:14.168Z,24.70
2022-08-31T23:25:44.553Z,24.70
2022-08-31T23:28:14.841Z,24.60
2022-08-31T23:30:46.671Z,24.70
2022-08-31T23:33:17.284Z,24.70
2022-08-31T23:35:49.357Z,24.60
2022-08-31T23:38:19.822Z,24.60
2022-08-31T23:40:51.395Z,24.60
2022-08-31T23:43:24.071Z,24.60
2022-08-31T23:45:54.579Z,24.60
2022-08-31T23:48:25.486Z,24.60
2022-08-31T23:50:57.486Z,24.60
2022-08-31T23:53:30.120Z,24.60
2022-08-31T23:56:00.458Z,24.60
2022-08-31T23:58:33.811Z,24.60
